createdAt,value
2022-11-05T00:00:07.858Z,17.05
2022-11-05T00:03:03.100Z,16.60
2022-11-05T00:05:49.752Z,18.67
2022-11-05T00:08:35.465Z,18.80
2022-11-05T00:11:03.511Z,19.88
2022-11-05T00:13:49.121Z,18.25
2022-11-05T00:16:34.316Z,17.92
2022-11-05T00:19:10.337Z,20.35
2022-11-05T00:21:57.640Z,19.70
2022-11-05T00:24:44.057Z,19.65
2022-11-05T00:27:12.719Z,18.85
2022-11-05T00:29:40.861Z,20.25
2022-11-05T00:32:08.786Z,19.10
2022-11-05T00:34:38.060Z,19.70
2022-11-05T00:37:06.100Z,19.88
2022-11-05T00:39:34.164Z,19.75
2022-11-05T00:42:19.712Z,19.48
2022-11-05T00:45:02.516Z,19.05
2022-11-05T00:47:48.533Z,18.23
2022-11-05T00:50:18.842Z,18.48
2022-11-05T00:52:56.868Z,19.30
2022-11-05T00:55:25.581Z,19.45
2022-11-05T00:57:53.533Z,18.83
2022-11-05T01:00:21.732Z,18.58
2022-11-05T01:02:49.848Z,17.80
2022-11-05T01:05:19.752Z,17.55
2022-11-05T01:07:47.688Z,18.30
2022-11-05T01:10:15.896Z,18.25
2022-11-05T01:12:43.783Z,17.02
2022-11-05T01:15:11.933Z,17.38
2022-11-05T01:17:39.872Z,17.50
2022-11-05T01:20:08.424Z,19.48
2022-11-05T01:22:37.759Z,18.90
2022-11-05T01:25:07.412Z,19.75
2022-11-05T01:27:36.542Z,19.50
2022-11-05T01:30:06.217Z,18.70
2022-11-05T01:32:35.580Z,18.63
2022-11-05T01:35:03.917Z,18.75
2022-11-05T01:37:31.786Z,20.13
2022-11-05T01:40:01.086Z,19.70
2022-11-05T01:42:29.948Z,20.90
2022-11-05T01:45:05.199Z,20.67
2022-11-05T01:47:42.916Z,22.98
2022-11-05T01:50:34.902Z,26.15
2022-11-05T01:53:11.717Z,36.93
2022-11-05T01:55:45.489Z,46.83
2022-11-05T01:58:17.843Z,48.58
2022-11-05T02:00:46.076Z,52.47
2022-11-05T02:03:17.631Z,56.92
2022-11-05T02:05:46.679Z,64.73
2022-11-05T02:08:28.554Z,70.35
2022-11-05T02:10:58.796Z,76.57
2022-11-05T02:13:26.773Z,79.93
2022-11-05T02:16:04.651Z,84.22
2022-11-05T02:18:45.233Z,84.80
2022-11-05T02:21:35.588Z,85.90
2022-11-05T02:24:36.780Z,80.93
2022-11-05T02:27:55.858Z,80.50
2022-11-05T02:30:47.701Z,78.93
2022-11-05T02:33:28.172Z,78.57
2022-11-05T02:36:14.080Z,78.03
2022-11-05T02:39:02.284Z,78.97
2022-11-05T02:41:36.745Z,75.28
2022-11-05T02:44:16.810Z,77.03
2022-11-05T02:46:55.343Z,77.18
2022-11-05T02:49:33.501Z,78.18
2022-11-05T02:52:06.395Z,78.55
2022-11-05T02:54:38.109Z,79.57
2022-11-05T02:57:06.912Z,85.15
2022-11-05T02:59:34.772Z,85.68
2022-11-05T03:02:05.338Z,94.15
2022-11-05T03:04:33.796Z,92.90
2022-11-05T03:07:14.563Z,95.53
2022-11-05T03:10:09.435Z,93.78
2022-11-05T03:12:46.373Z,94.97
2022-11-05T03:15:26.412Z,91.72
2022-11-05T03:18:06.463Z,92.35
2022-11-05T03:20:38.340Z,89.75
2022-11-05T03:23:13.642Z,86.38
2022-11-05T03:25:48.425Z,81.63
2022-11-05T03:28:18.591Z,75.13
2022-11-05T03:30:46.976Z,72.35
2022-11-05T03:33:20.349Z,63.88
2022-11-05T03:35:52.999Z,60.13
2022-11-05T03:38:25.887Z,55.60
2022-11-05T03:40:57.100Z,54.65
2022-11-05T03:43:30.665Z,49.65
2022-11-05T03:46:03.035Z,43.22
2022-11-05T03:48:35.687Z,40.67
2022-11-05T03:51:09.780Z,37.60
2022-11-05T03:53:43.895Z,35.65
2022-11-05T03:56:16.370Z,32.38
2022-11-05T04:01:13.415Z,35.85
2022-11-05T04:03:42.650Z,31.48
2022-11-05T04:06:29.531Z,30.40
2022-11-05T04:09:15.209Z,27.67
2022-11-05T04:12:00.786Z,31.02
2022-11-05T04:14:28.730Z,29.42
2022-11-05T04:17:08.845Z,31.40
2022-11-05T04:19:57.528Z,28.13
2022-11-05T04:22:45.047Z,26.83
2022-11-05T04:25:14.008Z,25.27
2022-11-05T04:27:42.281Z,25.48
2022-11-05T04:30:19.496Z,26.15
2022-11-05T04:33:01.706Z,24.98
2022-11-05T04:35:33.484Z,26.45
2022-11-05T04:38:02.087Z,24.95
2022-11-05T04:40:30.402Z,27.08
2022-11-05T04:42:58.883Z,27.33
2022-11-05T04:45:28.859Z,26.83
2022-11-05T04:47:56.897Z,29.30
2022-11-05T04:50:25.344Z,29.98
2022-11-05T04:52:54.623Z,31.80
2022-11-05T04:55:22.836Z,35.78
2022-11-05T04:57:52.012Z,38.90
2022-11-05T05:00:21.096Z,37.83
2022-11-05T05:02:49.116Z,37.75
2022-11-05T05:05:17.138Z,40.80
2022-11-05T05:07:45.153Z,42.00
2022-11-05T05:10:14.867Z,40.78
2022-11-05T05:12:43.135Z,40.67
2022-11-05T05:15:11.204Z,41.70
2022-11-05T05:17:39.357Z,43.10
2022-11-05T05:20:25.732Z,46.20
2022-11-05T05:22:54.623Z,42.28
2022-11-05T05:25:24.426Z,43.60
2022-11-05T05:27:52.576Z,42.75
2022-11-05T05:30:20.449Z,44.13
2022-11-05T05:32:48.395Z,42.65
2022-11-05T05:35:16.563Z,42.38
2022-11-05T05:37:44.885Z,44.88
2022-11-05T05:40:13.071Z,44.47
2022-11-05T05:42:43.516Z,42.95
2022-11-05T05:45:12.852Z,47.42
2022-11-05T05:47:40.854Z,47.42
2022-11-05T05:50:09.500Z,49.08
2022-11-05T05:52:37.497Z,52.67
2022-11-05T05:55:05.933Z,50.58
2022-11-05T05:57:34.759Z,49.88
2022-11-05T06:00:04.963Z,53.08
2022-11-05T06:02:33.198Z,57.13
2022-11-05T06:05:01.453Z,64.28
2022-11-05T06:07:33.107Z,66.78
2022-11-05T06:10:06.681Z,68.05
2022-11-05T06:12:34.676Z,65.60
2022-11-05T06:15:05.018Z,63.78
2022-11-05T06:17:34.327Z,65.63
2022-11-05T06:20:02.333Z,66.72
2022-11-05T06:22:30.648Z,68.35
2022-11-05T06:24:58.582Z,71.03
2022-11-05T06:27:26.702Z,76.25
2022-11-05T06:29:54.673Z,68.50
2022-11-05T06:32:24.137Z,70.22
2022-11-05T06:34:52.100Z,68.97
2022-11-05T06:37:20.032Z,71.35
2022-11-05T06:39:48.316Z,73.53
2022-11-05T06:42:19.099Z,76.80
2022-11-05T06:44:47.803Z,76.18
2022-11-05T06:47:15.933Z,73.57
2022-11-05T06:49:45.628Z,73.10
2022-11-05T06:52:14.342Z,72.00
2022-11-05T06:54:44.027Z,65.50
2022-11-05T06:57:13.524Z,66.15
2022-11-05T06:59:41.639Z,66.07
2022-11-05T07:02:12.863Z,69.40
2022-11-05T07:04:40.953Z,67.82
2022-11-05T07:07:10.258Z,68.25
2022-11-05T07:09:40.522Z,71.28
2022-11-05T07:12:08.902Z,71.13
2022-11-05T07:14:36.777Z,69.03
2022-11-05T07:17:04.745Z,71.00
2022-11-05T07:19:32.603Z,74.45
2022-11-05T07:22:00.498Z,76.43
2022-11-05T07:24:29.694Z,77.03
2022-11-05T07:26:57.548Z,75.80
2022-11-05T07:29:25.781Z,85.93
2022-11-05T07:31:53.632Z,92.05
2022-11-05T07:34:21.650Z,95.22
2022-11-05T07:36:49.568Z,99.70
2022-11-05T07:39:17.422Z,109.35
2022-11-05T07:41:46.651Z,111.32
2022-11-05T07:44:14.520Z,111.60
2022-11-05T07:46:42.765Z,113.65
2022-11-05T07:49:10.723Z,114.35
2022-11-05T07:51:38.577Z,117.20
2022-11-05T07:54:06.515Z,115.47
2022-11-05T07:56:34.513Z,114.20
2022-11-05T07:59:03.832Z,117.80
2022-11-05T08:01:31.906Z,117.80
2022-11-05T08:03:59.939Z,114.93
2022-11-05T08:06:27.799Z,121.82
2022-11-05T08:08:55.880Z,120.38
2022-11-05T08:11:23.763Z,121.65
2022-11-05T08:13:51.663Z,120.03
2022-11-05T08:16:20.954Z,117.60
2022-11-05T08:18:48.816Z,122.00
2022-11-05T08:21:16.756Z,119.05
2022-11-05T08:23:45.258Z,120.57
2022-11-05T08:26:13.187Z,118.82
2022-11-05T08:28:41.196Z,119.07
2022-11-05T08:31:09.088Z,122.75
2022-11-05T08:33:38.336Z,124.47
2022-11-05T08:36:06.861Z,122.63
2022-11-05T08:38:34.752Z,119.07
2022-11-05T08:41:02.655Z,125.57
2022-11-05T08:43:30.529Z,126.43
2022-11-05T08:46:00.573Z,129.38
2022-11-05T08:48:28.671Z,127.90
2022-11-05T08:51:00.858Z,125.40
2022-11-05T08:53:28.944Z,129.70
2022-11-05T08:56:00.606Z,129.63
2022-11-05T08:58:29.217Z,126.20
2022-11-05T09:01:03.505Z,126.60
2022-11-05T09:03:32.823Z,126.00
2022-11-05T09:06:02.135Z,124.47
2022-11-05T09:08:30.179Z,128.50
2022-11-05T09:10:58.085Z,128.63
2022-11-05T09:13:26.697Z,119.38
2022-11-05T09:15:55.026Z,129.50
2022-11-05T09:18:22.957Z,124.95
2022-11-05T09:20:50.881Z,128.43
2022-11-05T09:23:20.203Z,123.07
2022-11-05T09:25:48.593Z,121.28
2022-11-05T09:28:18.174Z,113.53
2022-11-05T09:30:48.460Z,114.65
2022-11-05T09:33:17.486Z,111.00
2022-11-05T09:35:45.717Z,106.45
2022-11-05T09:38:13.701Z,100.78
2022-11-05T09:40:48.668Z,98.13
2022-11-05T09:43:21.444Z,61.88
2022-11-05T09:45:54.116Z,59.08
2022-11-05T09:48:25.852Z,55.65
2022-11-05T09:50:55.357Z,27.95
2022-11-05T09:53:24.889Z,14.93
2022-11-05T09:55:57.293Z,17.48
2022-11-05T10:00:58.277Z,23.25
2022-11-05T10:03:29.601Z,16.75
2022-11-05T10:06:07.156Z,14.27
2022-11-05T10:08:41.116Z,15.25
2022-11-05T10:11:15.432Z,15.30
2022-11-05T10:13:47.246Z,15.60
2022-11-05T10:16:24.735Z,10.85
2022-11-05T10:18:58.059Z,9.25
2022-11-05T10:21:51.348Z,9.25
2022-11-05T10:24:16.899Z,12.07
2022-11-05T10:26:50.389Z,12.95
2022-11-05T10:29:26.032Z,10.02
2022-11-05T10:31:56.085Z,14.82
2022-11-05T10:34:28.171Z,13.68
2022-11-05T10:36:56.204Z,14.75
2022-11-05T10:39:27.587Z,13.25
2022-11-05T10:42:18.122Z,9.75
2022-11-05T10:44:52.256Z,9.60
2022-11-05T10:47:39.038Z,6.47
2022-11-05T10:50:12.697Z,6.85
2022-11-05T10:52:46.454Z,6.38
2022-11-05T10:55:19.653Z,7.32
2022-11-05T10:57:49.736Z,4.60
2022-11-05T11:00:23.480Z,5.43
2022-11-05T11:02:53.082Z,4.90
2022-11-05T11:05:23.631Z,4.70
2022-11-05T11:07:58.152Z,2.90
2022-11-05T11:10:27.029Z,4.75
2022-11-05T11:12:57.699Z,2.53
2022-11-05T11:15:28.397Z,3.60
2022-11-05T11:17:57.419Z,4.38
2022-11-05T11:20:28.792Z,3.72
2022-11-05T11:23:06.555Z,3.30
2022-11-05T11:25:40.556Z,3.17
2022-11-05T11:28:18.373Z,3.33
2022-11-05T11:30:55.096Z,3.30
2022-11-05T11:33:27.469Z,2.95
2022-11-05T11:38:24.559Z,4.22
2022-11-05T11:41:00.871Z,3.55
2022-11-05T11:43:34.779Z,3.33
2022-11-05T11:46:07.794Z,3.85
2022-11-05T11:48:41.147Z,4.25
2022-11-05T11:51:20.411Z,3.95
2022-11-05T11:53:50.486Z,3.40
2022-11-05T11:56:21.166Z,4.45
2022-11-05T11:58:52.253Z,4.32
2022-11-05T12:01:51.106Z,4.63
2022-11-05T12:04:55.042Z,3.80
2022-11-05T12:07:36.367Z,4.55
2022-11-05T12:10:24.836Z,4.65
2022-11-05T12:13:21.276Z,5.15
2022-11-05T12:15:53.439Z,4.13
2022-11-05T12:18:29.857Z,4.18
2022-11-05T12:21:07.239Z,4.85
2022-11-05T12:23:59.986Z,3.88
2022-11-05T12:29:20.970Z,4.75
2022-11-05T12:32:02.570Z,4.05
2022-11-05T12:34:47.507Z,3.88
2022-11-05T12:37:25.617Z,4.03
2022-11-05T12:40:11.986Z,3.40
2022-11-05T12:42:55.330Z,4.60
2022-11-05T12:45:34.486Z,3.40
2022-11-05T12:48:19.232Z,4.07
2022-11-05T12:50:53.013Z,4.55
2022-11-05T12:53:39.340Z,4.35
2022-11-05T12:56:14.245Z,4.35
2022-11-05T12:58:45.766Z,4.82
2022-11-05T13:01:18.953Z,4.27
2022-11-05T13:03:52.857Z,3.78
2022-11-05T13:06:24.826Z,4.35
2022-11-05T13:08:59.555Z,4.78
2022-11-05T13:11:30.949Z,4.93
2022-11-05T13:14:06.996Z,4.95
2022-11-05T13:16:38.973Z,4.07
2022-11-05T13:19:22.548Z,4.18
2022-11-05T13:21:54.918Z,5.03
2022-11-05T13:26:57.221Z,4.65
2022-11-05T13:29:32.273Z,3.70
2022-11-05T13:32:05.709Z,3.70
2022-11-05T13:34:37.787Z,3.85
2022-11-05T13:37:25.673Z,3.72
2022-11-05T13:39:57.126Z,3.88
2022-11-05T13:42:59.967Z,4.05
2022-11-05T13:45:48.379Z,4.18
2022-11-05T13:48:45.477Z,3.78
2022-11-05T13:51:48.841Z,3.72
2022-11-05T13:54:54.415Z,3.75
2022-11-05T13:57:39.011Z,4.63
2022-11-05T14:00:16.582Z,3.92
2022-11-05T14:02:48.700Z,4.30
2022-11-05T14:05:30.573Z,4.40
2022-11-05T14:08:00.165Z,4.65
2022-11-05T14:10:37.936Z,4.93
2022-11-05T14:13:21.900Z,4.70
2022-11-05T14:16:01.320Z,3.80
2022-11-05T14:18:47.872Z,3.97
2022-11-05T14:21:46.571Z,4.57
2022-11-05T14:24:28.610Z,4.30
2022-11-05T14:27:41.406Z,4.90
2022-11-05T14:30:43.663Z,4.22
2022-11-05T14:33:18.582Z,4.90
2022-11-05T14:35:46.544Z,4.35
2022-11-05T14:38:22.232Z,4.55
2022-11-05T14:40:50.740Z,4.55
2022-11-05T14:43:26.690Z,5.20
2022-11-05T14:45:57.756Z,4.75
2022-11-05T14:48:35.301Z,4.53
2022-11-05T14:51:03.596Z,6.00
2022-11-05T14:53:35.714Z,5.80
2022-11-05T14:56:06.408Z,6.60
2022-11-05T14:58:37.402Z,5.68
2022-11-05T15:01:07.871Z,6.50
2022-11-05T15:04:03.831Z,6.47
2022-11-05T15:06:34.640Z,6.05
2022-11-05T15:09:18.399Z,7.03
2022-11-05T15:12:10.597Z,7.47
2022-11-05T15:14:48.089Z,6.43
2022-11-05T15:17:20.584Z,6.82
2022-11-05T15:22:26.909Z,7.95
2022-11-05T15:24:55.561Z,7.63
2022-11-05T15:27:38.581Z,7.45
2022-11-05T15:30:15.935Z,8.35
2022-11-05T15:32:45.290Z,7.93
2022-11-05T15:35:23.404Z,8.95
2022-11-05T15:37:57.336Z,10.07
2022-11-05T15:40:31.131Z,10.50
2022-11-05T15:43:19.497Z,10.38
2022-11-05T15:46:01.515Z,10.77
2022-11-05T15:48:29.441Z,9.05
2022-11-05T15:50:57.508Z,11.25
2022-11-05T15:56:27.054Z,11.57
2022-11-05T15:58:59.632Z,10.48
2022-11-05T16:01:31.724Z,12.32
2022-11-05T16:04:09.643Z,13.35
2022-11-05T16:06:39.912Z,13.40
2022-11-05T16:09:08.707Z,14.73
2022-11-05T16:11:36.738Z,13.75
2022-11-05T16:14:16.025Z,14.00
2022-11-05T16:16:45.923Z,15.02
2022-11-05T16:19:40.104Z,14.50
2022-11-05T16:22:09.070Z,14.85
2022-11-05T16:24:36.992Z,17.42
2022-11-05T16:27:07.140Z,16.15
2022-11-05T16:29:37.189Z,16.52
2022-11-05T16:32:15.717Z,16.33
2022-11-05T16:34:48.355Z,15.98
2022-11-05T16:37:18.959Z,15.70
2022-11-05T16:39:46.845Z,14.68
2022-11-05T16:42:41.816Z,15.85
2022-11-05T16:45:14.763Z,16.38
2022-11-05T16:47:45.434Z,16.67
2022-11-05T16:50:22.589Z,14.15
2022-11-05T16:52:50.696Z,13.68
2022-11-05T16:55:19.183Z,14.07
2022-11-05T16:57:50.716Z,15.95
2022-11-05T17:00:20.098Z,13.93
2022-11-05T17:02:50.255Z,15.50
2022-11-05T17:05:21.596Z,15.30
2022-11-05T17:07:49.503Z,15.70
2022-11-05T17:10:17.601Z,15.48
2022-11-05T17:12:46.099Z,16.02
2022-11-05T17:15:26.067Z,15.10
2022-11-05T17:17:56.427Z,18.30
2022-11-05T17:20:32.538Z,16.65
2022-11-05T17:23:04.728Z,17.73
2022-11-05T17:25:33.138Z,18.70
2022-11-05T17:28:01.167Z,16.95
2022-11-05T17:30:29.308Z,15.38
2022-11-05T17:32:58.559Z,16.20
2022-11-05T17:35:27.165Z,19.38
2022-11-05T17:37:55.043Z,17.23
2022-11-05T17:40:24.014Z,12.98
2022-11-05T17:42:53.091Z,15.27
2022-11-05T17:45:21.032Z,14.95
2022-11-05T17:47:48.962Z,13.85
2022-11-05T17:50:23.105Z,14.48
2022-11-05T17:52:52.818Z,14.70
2022-11-05T17:55:21.972Z,16.20
2022-11-05T17:57:52.643Z,16.10
2022-11-05T18:00:22.506Z,15.68
2022-11-05T18:02:55.268Z,15.73
2022-11-05T18:05:27.817Z,16.75
2022-11-05T18:07:58.115Z,14.63
2022-11-05T18:10:26.348Z,14.70
2022-11-05T18:12:54.336Z,13.88
2022-11-05T18:15:25.001Z,13.40
2022-11-05T18:17:53.061Z,14.88
2022-11-05T18:20:21.453Z,13.02
2022-11-05T18:22:52.113Z,11.60
2022-11-05T18:25:20.280Z,14.13
2022-11-05T18:27:48.208Z,12.68
2022-11-05T18:30:16.628Z,13.63
2022-11-05T18:32:48.478Z,15.10
2022-11-05T18:35:18.342Z,12.65
2022-11-05T18:37:46.732Z,11.10
2022-11-05T18:40:16.007Z,11.52
2022-11-05T18:42:43.941Z,12.30
2022-11-05T18:45:12.765Z,11.38
2022-11-05T18:47:41.121Z,11.90
2022-11-05T18:50:10.604Z,10.82
2022-11-05T18:52:38.574Z,12.38
2022-11-05T18:55:07.658Z,7.97
2022-11-05T18:57:37.311Z,9.70
2022-11-05T19:00:06.216Z,9.35
2022-11-05T19:02:34.302Z,7.95
2022-11-05T19:07:50.344Z,8.55
2022-11-05T19:10:18.737Z,9.90
2022-11-05T19:12:48.002Z,8.30
2022-11-05T19:15:15.915Z,11.70
2022-11-05T19:17:44.097Z,10.55
2022-11-05T19:20:13.071Z,10.82
2022-11-05T19:22:41.083Z,9.63
2022-11-05T19:25:09.478Z,10.48
2022-11-05T19:27:38.616Z,9.25
2022-11-05T19:30:09.013Z,8.07
2022-11-05T19:32:37.160Z,8.10
2022-11-05T19:35:05.576Z,9.80
2022-11-05T19:37:33.497Z,9.95
2022-11-05T19:40:01.579Z,11.50
2022-11-05T19:42:29.556Z,8.98
2022-11-05T19:45:06.838Z,10.65
2022-11-05T19:47:46.329Z,8.43
2022-11-05T19:50:14.273Z,10.40
2022-11-05T19:52:42.309Z,10.85
2022-11-05T19:55:12.293Z,8.00
2022-11-05T19:57:40.391Z,7.35
2022-11-05T20:00:09.699Z,9.73
2022-11-05T20:02:37.748Z,9.85
2022-11-05T20:05:07.506Z,9.57
2022-11-05T20:07:35.410Z,10.60
2022-11-05T20:10:03.375Z,9.85
2022-11-05T20:12:31.324Z,10.85
2022-11-05T20:14:59.246Z,9.38
2022-11-05T20:17:27.282Z,9.50
2022-11-05T20:19:58.088Z,10.63
2022-11-05T20:22:27.686Z,10.93
2022-11-05T20:24:55.589Z,9.23
2022-11-05T20:27:23.541Z,8.88
2022-11-05T20:29:51.461Z,10.93
2022-11-05T20:32:19.362Z,10.48
2022-11-05T20:34:47.449Z,9.50
2022-11-05T20:37:15.478Z,9.95
2022-11-05T20:39:47.990Z,10.38
2022-11-05T20:42:15.977Z,10.98
2022-11-05T20:44:43.949Z,11.63
2022-11-05T20:47:12.035Z,10.40
2022-11-05T20:49:39.965Z,10.48
2022-11-05T20:52:08.006Z,9.32
2022-11-05T20:54:35.990Z,9.40
2022-11-05T20:57:05.418Z,10.05
2022-11-05T20:59:33.450Z,8.43
2022-11-05T21:02:01.641Z,9.48
2022-11-05T21:04:29.898Z,9.75
2022-11-05T21:06:57.818Z,9.80
2022-11-05T21:09:25.712Z,9.10
2022-11-05T21:12:11.566Z,10.50
2022-11-05T21:14:42.693Z,9.15
2022-11-05T21:17:12.868Z,9.45
2022-11-05T21:19:40.887Z,10.43
2022-11-05T21:22:15.188Z,12.73
2022-11-05T21:24:44.092Z,10.00
2022-11-05T21:27:12.025Z,12.40
2022-11-05T21:29:41.386Z,9.27
2022-11-05T21:32:09.351Z,8.70
2022-11-05T21:34:37.426Z,10.70
2022-11-05T21:37:06.048Z,8.35
2022-11-05T21:39:34.948Z,9.75
2022-11-05T21:42:03.236Z,9.35
2022-11-05T21:44:31.236Z,10.40
2022-11-05T21:47:00.777Z,9.15
2022-11-05T21:49:28.671Z,11.27
2022-11-05T21:52:14.115Z,11.63
2022-11-05T21:54:59.798Z,11.43
2022-11-05T21:57:45.257Z,10.75
2022-11-05T22:00:14.386Z,9.93
2022-11-05T22:02:43.811Z,10.90
2022-11-05T22:05:11.965Z,12.23
2022-11-05T22:07:41.040Z,8.57
2022-11-05T22:10:16.327Z,9.68
2022-11-05T22:12:45.139Z,10.88
2022-11-05T22:15:13.648Z,10.57
2022-11-05T22:17:46.944Z,12.07
2022-11-05T22:20:15.770Z,10.98
2022-11-05T22:22:43.998Z,10.80
2022-11-05T22:25:12.863Z,11.95
2022-11-05T22:27:40.945Z,12.80
2022-11-05T22:30:09.726Z,11.40
2022-11-05T22:32:39.090Z,11.60
2022-11-05T22:35:09.636Z,11.52
2022-11-05T22:37:37.824Z,9.52
2022-11-05T22:40:06.535Z,12.35
2022-11-05T22:42:34.531Z,11.32
2022-11-05T22:45:02.570Z,11.32
2022-11-05T22:47:32.803Z,10.77
2022-11-05T22:50:00.662Z,11.15
2022-11-05T22:52:30.058Z,11.40
2022-11-05T22:54:58.004Z,11.60
2022-11-05T22:57:26.090Z,13.32
2022-11-05T22:59:54.005Z,14.05
2022-11-05T23:02:22.384Z,13.82
2022-11-05T23:04:52.645Z,11.80
2022-11-05T23:07:40.641Z,14.00
2022-11-05T23:10:28.649Z,15.43
2022-11-05T23:12:57.225Z,14.07
2022-11-05T23:15:41.782Z,14.82
2022-11-05T23:18:27.750Z,12.50
2022-11-05T23:21:13.216Z,11.63
2022-11-05T23:24:01.846Z,13.02
2022-11-05T23:26:51.586Z,12.05
2022-11-05T23:29:20.771Z,11.13
2022-11-05T23:32:06.140Z,12.23
2022-11-05T23:34:34.434Z,11.48
2022-11-05T23:37:20.113Z,13.43
2022-11-05T23:39:48.058Z,12.93
2022-11-05T23:42:35.312Z,11.68
2022-11-05T23:45:29.324Z,12.93
2022-11-05T23:48:15.063Z,11.98
2022-11-05T23:50:44.521Z,13.90
2022-11-05T23:53:12.446Z,12.90
2022-11-05T23:55:40.884Z,14.80
2022-11-05T23:58:11.334Z,15.45
